Time;durP1;ratioP1;P1;durP2;ratioP2;P2;SDS_P1;SDS_P2;PMS_P1;PMS_P2;Temp;Humidity;BMP_temperature;BMP_pressure;BME280_temperature;BME280_humidity;BME280_pressure;Samples;Min_cycle;Max_cycle;Signal;HPM_P1;HPM_P2
2023/10/20 00:00:40;;;;;;;8.07;4.27;;;15.40;99.90;;;;;;4992434;28;20830;-67
2023/10/20 00:03:06;;;;;;;11.65;4.78;;;15.50;99.90;;;;;;4993054;28;20394;-68
2023/10/20 00:05:33;;;;;;;11.23;4.40;;;15.60;99.90;;;;;;4993472;28;20885;-68
2023/10/20 00:07:59;;;;;;;10.52;4.35;;;15.60;99.90;;;;;;4993031;28;20405;-67
2023/10/20 00:10:26;;;;;;;9.00;4.80;;;15.60;99.90;;;;;;4993130;28;20398;-67
2023/10/20 00:12:51;;;;;;;8.77;4.18;;;15.70;99.90;;;;;;4993052;28;20405;-67
2023/10/20 00:15:17;;;;;;;16.50;4.80;;;15.70;99.90;;;;;;4992827;28;20489;-68
2023/10/20 00:17:42;;;;;;;10.00;3.87;;;15.60;99.90;;;;;;4991695;28;20442;-68
2023/10/20 00:20:09;;;;;;;10.43;3.90;;;15.70;99.90;;;;;;4992623;28;20423;-67
2023/10/20 00:22:35;;;;;;;9.63;3.90;;;15.70;91.40;;;;;;4993290;28;20394;-68
2023/10/20 00:25:01;;;;;;;9.80;3.97;;;15.60;91.90;;;;;;4993647;28;20399;-67
2023/10/20 00:27:26;;;;;;;8.20;3.80;;;15.60;80.10;;;;;;4993011;28;20390;-68
2023/10/20 00:29:52;;;;;;;11.80;5.03;;;15.60;91.50;;;;;;4992806;28;20402;-67
2023/10/20 00:32:19;;;;;;;8.13;3.23;;;15.60;99.90;;;;;;4992518;28;20426;-67
2023/10/20 00:34:45;;;;;;;9.35;3.70;;;15.60;98.10;;;;;;4992534;28;20394;-67
2023/10/20 00:37:10;;;;;;;8.37;4.80;;;15.60;99.90;;;;;;4992862;28;20382;-67
2023/10/20 00:39:36;;;;;;;7.90;4.22;;;15.60;94.10;;;;;;4992594;28;20406;-67
2023/10/20 00:42:02;;;;;;;7.97;3.50;;;15.60;94.50;;;;;;4992949;28;20927;-68
2023/10/20 00:44:28;;;;;;;7.75;3.15;;;15.60;96.70;;;;;;4990890;28;20399;-67
2023/10/20 00:46:54;;;;;;;8.57;3.55;;;15.60;97.60;;;;;;4992384;28;20468;-67
2023/10/20 00:49:21;;;;;;;9.40;3.80;;;15.70;91.70;;;;;;4992343;28;20562;-71
2023/10/20 00:51:47;;;;;;;9.57;4.05;;;15.70;74.40;;;;;;4992505;28;20410;-67
2023/10/20 00:54:14;;;;;;;8.20;4.00;;;15.70;76.30;;;;;;4992150;28;20395;-67
2023/10/20 00:56:44;;;;;;;8.30;3.17;;;15.60;57.80;;;;;;4991167;28;20434;-67
2023/10/20 00:59:10;;;;;;;7.95;3.45;;;15.70;42.00;;;;;;4990679;28;20486;-67
2023/10/20 01:01:36;;;;;;;10.23;4.90;;;15.70;34.10;;;;;;4990648;28;20505;-68
2023/10/20 01:04:02;;;;;;;10.48;3.90;;;15.60;36.40;;;;;;4991206;28;20391;-67
2023/10/20 01:06:28;;;;;;;8.90;4.20;;;15.50;55.10;;;;;;4991433;28;20403;-67
2023/10/20 01:08:58;;;;;;;11.02;3.70;;;15.40;86.40;;;;;;4991800;28;20493;-68
2023/10/20 01:11:24;;;;;;;9.23;3.88;;;15.40;95.30;;;;;;4990099;28;20465;-67
2023/10/20 01:13:50;;;;;;;9.53;3.30;;;15.30;99.90;;;;;;4991159;28;21000;-67
2023/10/20 01:16:16;;;;;;;9.53;4.63;;;15.40;99.90;;;;;;4991352;28;20486;-67
2023/10/20 01:18:43;;;;;;;7.17;3.00;;;15.50;99.90;;;;;;4986807;28;20503;-68
2023/10/20 01:21:08;;;;;;;8.57;4.20;;;15.40;99.90;;;;;;4985050;28;20434;-68
2023/10/20 01:23:34;;;;;;;8.73;3.90;;;15.50;99.90;;;;;;4991612;28;20399;-68
2023/10/20 01:25:59;;;;;;;7.60;3.50;;;15.60;99.90;;;;;;4991377;28;20911;-68
2023/10/20 01:28:25;;;;;;;7.60;3.30;;;15.60;99.90;;;;;;4989836;28;20418;-68
2023/10/20 01:30:50;;;;;;;9.67;3.60;;;15.60;99.90;;;;;;4990761;28;20410;-67
2023/10/20 01:33:16;;;;;;;11.27;4.28;;;15.60;99.90;;;;;;4987833;28;20502;-68
2023/10/20 01:35:41;;;;;;;9.40;3.80;;;15.70;98.70;;;;;;4991012;28;20407;-67
2023/10/20 01:38:07;;;;;;;11.00;3.50;;;15.80;86.10;;;;;;4991255;28;20544;-67
2023/10/20 01:40:33;;;;;;;7.50;4.10;;;15.80;60.70;;;;;;4991131;28;20430;-68
2023/10/20 01:42:59;;;;;;;11.38;4.13;;;15.60;55.30;;;;;;4990670;28;20398;-67
2023/10/20 01:45:24;;;;;;;8.10;3.73;;;15.70;81.90;;;;;;4991434;28;20749;-66
2023/10/20 01:47:50;;;;;;;9.57;4.50;;;15.60;74.40;;;;;;4991078;28;20398;-67
2023/10/20 01:50:16;;;;;;;9.63;3.25;;;15.70;66.30;;;;;;4990993;28;20482;-67
2023/10/20 01:52:42;;;;;;;7.17;2.87;;;15.60;80.60;;;;;;4990377;28;20417;-67
2023/10/20 01:55:08;;;;;;;9.20;3.20;;;15.70;91.70;;;;;;4991320;28;20489;-68
2023/10/20 01:57:33;;;;;;;13.93;3.08;;;15.70;67.90;;;;;;4990859;28;20884;-68
2023/10/20 02:00:01;;;;;;;8.97;3.90;;;15.60;65.90;;;;;;4990780;28;20842;-68
2023/10/20 02:02:27;;;;;;;8.50;3.03;;;15.60;70.80;;;;;;4990517;28;20494;-68
2023/10/20 02:04:52;;;;;;;8.10;3.38;;;15.60;48.10;;;;;;4989484;28;20489;-68
2023/10/20 02:07:18;;;;;;;9.60;3.97;;;15.60;46.00;;;;;;4990567;28;20410;-67
2023/10/20 02:09:43;;;;;;;11.00;3.73;;;15.60;55.40;;;;;;4990823;28;20707;-68
2023/10/20 02:12:10;;;;;;;8.10;3.97;;;15.60;68.30;;;;;;4989689;28;20991;-68
2023/10/20 02:14:36;;;;;;;8.47;3.50;;;15.60;54.30;;;;;;4990278;28;20808;-68
2023/10/20 02:17:01;;;;;;;7.28;2.80;;;15.60;28.70;;;;;;4991184;28;20395;-68
2023/10/20 02:19:27;;;;;;;7.93;3.03;;;15.60;30.40;;;;;;4990046;28;20473;-67
2023/10/20 02:21:53;;;;;;;7.63;3.95;;;15.50;50.30;;;;;;4990143;28;20465;-67
2023/10/20 02:24:19;;;;;;;7.93;3.63;;;15.50;44.90;;;;;;4986183;28;20415;-68
2023/10/20 02:26:45;;;;;;;9.35;3.40;;;15.40;52.00;;;;;;4989668;28;20483;-69
2023/10/20 02:29:11;;;;;;;8.23;3.60;;;15.30;76.20;;;;;;4990229;28;20487;-68
2023/10/20 02:31:37;;;;;;;7.68;3.95;;;15.40;85.30;;;;;;4987513;28;20845;-68
2023/10/20 02:34:03;;;;;;;13.70;4.40;;;15.30;98.00;;;;;;4987896;28;20410;-68
2023/10/20 02:36:34;;;;;;;7.00;3.10;;;15.30;98.80;;;;;;4988545;28;20454;-68
2023/10/20 02:38:59;;;;;;;7.68;3.92;;;15.40;99.90;;;;;;4988537;28;20511;-68
2023/10/20 02:41:25;;;;;;;8.47;3.70;;;15.50;94.40;;;;;;4988770;28;20470;-69
2023/10/20 02:43:50;;;;;;;6.85;2.53;;;15.60;82.50;;;;;;4989339;28;20468;-67
2023/10/20 02:46:16;;;;;;;8.60;3.90;;;15.60;55.50;;;;;;4989307;28;20399;-67
2023/10/20 02:48:42;;;;;;;10.90;4.13;;;15.50;48.90;;;;;;4989661;28;20387;-68
2023/10/20 02:51:12;;;;;;;6.72;2.83;;;15.40;87.10;;;;;;4988663;28;20935;-68
2023/10/20 02:53:39;;;;;;;8.23;3.65;;;15.40;83.40;;;;;;4990207;28;20599;-68
2023/10/20 02:56:15;;;;;;;6.00;2.47;;;15.30;80.70;;;;;;4989927;28;20414;-68
2023/10/20 02:58:44;;;;;;;8.95;3.17;;;15.20;98.20;;;;;;4990249;28;20525;-68
2023/10/20 03:01:13;;;;;;;9.70;3.80;;;15.20;99.90;;;;;;4989814;28;21018;-68
2023/10/20 03:03:39;;;;;;;7.03;3.13;;;15.10;99.90;;;;;;4989913;28;20570;-68
2023/10/20 03:06:04;;;;;;;9.50;3.77;;;15.20;99.90;;;;;;4990515;28;20485;-68
2023/10/20 03:08:30;;;;;;;14.18;4.82;;;15.20;99.90;;;;;;4990365;28;20501;-68
2023/10/20 03:10:59;;;;;;;9.15;3.50;;;15.20;99.90;;;;;;4988218;28;20461;-68
2023/10/20 03:13:26;;;;;;;7.78;3.40;;;15.10;99.90;;;;;;4989737;28;20527;-68
2023/10/20 03:15:52;;;;;;;8.07;2.78;;;15.10;99.90;;;;;;4989698;28;20505;-68
2023/10/20 03:18:19;;;;;;;6.90;2.70;;;15.10;99.90;;;;;;4984538;28;20420;-68
2023/10/20 03:20:46;;;;;;;6.85;2.50;;;15.00;99.90;;;;;;4968980;28;20784;-68
2023/10/20 03:23:13;;;;;;;11.57;3.38;;;15.10;99.90;;;;;;4970850;28;20399;-67
2023/10/20 03:25:38;;;;;;;8.88;3.58;;;15.20;99.90;;;;;;4985712;28;20908;-68
2023/10/20 03:28:05;;;;;;;6.85;2.80;;;15.20;99.90;;;;;;4994409;28;20481;-68
2023/10/20 03:30:31;;;;;;;6.70;2.60;;;15.20;99.90;;;;;;4994419;28;20401;-68
2023/10/20 03:32:57;;;;;;;6.93;2.72;;;15.30;99.90;;;;;;4981018;28;20399;-68
2023/10/20 03:35:22;;;;;;;6.97;2.97;;;15.30;99.90;;;;;;4985000;28;20394;-68
2023/10/20 03:37:56;;;;;;;7.23;2.93;;;15.30;99.90;;;;;;4993435;28;20430;-68
2023/10/20 03:40:36;;;;;;;7.30;3.17;;;15.40;99.90;;;;;;4993453;28;20453;-68
2023/10/20 03:43:03;;;;;;;9.73;3.00;;;15.40;99.90;;;;;;4994247;28;21071;-67
2023/10/20 03:45:28;;;;;;;6.88;2.10;;;15.40;99.90;;;;;;4992769;28;20395;-67
2023/10/20 03:47:54;;;;;;;6.30;2.90;;;15.50;98.70;;;;;;4992729;28;20838;-67
2023/10/20 03:50:19;;;;;;;8.87;2.63;;;15.60;58.40;;;;;;4992987;28;20430;-68
2023/10/20 03:52:48;;;;;;;7.33;2.23;;;15.60;75.00;;;;;;4992199;28;20414;-67
2023/10/20 03:55:14;;;;;;;5.70;2.15;;;15.60;53.20;;;;;;4992363;28;20406;-67
2023/10/20 03:57:44;;;;;;;5.90;2.22;;;15.60;80.00;;;;;;4993089;28;20419;-68
2023/10/20 04:00:29;;;;;;;8.30;2.63;;;15.60;54.90;;;;;;4991731;28;20513;-68
2023/10/20 04:02:59;;;;;;;6.70;2.30;;;15.50;43.00;;;;;;4991898;28;20434;-67
2023/10/20 04:05:25;;;;;;;7.55;2.97;;;15.50;78.60;;;;;;4991542;28;20469;-67
2023/10/20 04:07:51;;;;;;;7.20;3.03;;;15.40;71.20;;;;;;4990544;28;20407;-68
2023/10/20 04:10:20;;;;;;;5.32;1.88;;;15.50;68.20;;;;;;4993318;28;20398;-67
2023/10/20 04:12:47;;;;;;;5.57;2.40;;;15.50;78.20;;;;;;4992652;28;20885;-68
2023/10/20 04:15:16;;;;;;;6.57;1.83;;;15.50;54.80;;;;;;4992074;28;20402;-67
2023/10/20 04:17:51;;;;;;;8.63;2.30;;;15.50;37.50;;;;;;4990147;28;20449;-67
2023/10/20 04:20:20;;;;;;;6.60;2.80;;;15.40;53.30;;;;;;4980049;28;21004;-67
2023/10/20 04:22:50;;;;;;;8.20;2.78;;;15.40;79.50;;;;;;4981938;28;20486;-68
2023/10/20 04:25:22;;;;;;;5.07;1.73;;;15.40;61.00;;;;;;4987879;28;20507;-67
2023/10/20 04:27:57;;;;;;;5.00;1.80;;;15.30;61.90;;;;;;4986008;28;20448;-68
2023/10/20 04:54:44;;;;;;;5.15;2.03;;;15.40;85.10;;;;;;4984650;28;20423;-68
2023/10/20 04:59:59;;;;;;;5.65;1.50;;;15.60;42.90;;;;;;4984647;28;20901;-68
2023/10/20 05:02:39;;;;;;;5.47;1.80;;;15.60;33.00;;;;;;4991048;28;21900;-68
2023/10/20 05:05:26;;;;;;;6.13;2.15;;;15.50;43.60;;;;;;4990999;28;20485;-68
2023/10/20 05:07:58;;;;;;;6.70;2.10;;;15.60;13.00;;;;;;4989396;28;20426;-68
2023/10/20 05:10:24;;;;;;;8.40;2.05;;;15.40;27.20;;;;;;4987134;28;20433;-67
2023/10/20 05:12:50;;;;;;;5.30;2.10;;;15.40;42.40;;;;;;4988733;28;20419;-67
2023/10/20 05:15:17;;;;;;;8.02;2.92;;;15.30;48.20;;;;;;4990093;28;20476;-67
2023/10/20 05:17:43;;;;;;;6.10;2.35;;;15.20;75.50;;;;;;4989296;28;20482;-67
2023/10/20 05:20:15;;;;;;;5.38;2.05;;;15.10;83.20;;;;;;4992147;28;20984;-74
2023/10/20 05:22:41;;;;;;;7.20;2.50;;;15.10;86.80;;;;;;4991985;28;20945;-74
2023/10/20 05:25:08;;;;;;;6.80;2.20;;;15.00;99.90;;;;;;4972998;28;20410;-74
2023/10/20 05:27:33;;;;;;;6.28;2.28;;;15.10;99.90;;;;;;4990864;28;20406;-70
2023/10/20 05:29:59;;;;;;;8.20;2.00;;;15.10;99.90;;;;;;4991537;28;20418;-72
2023/10/20 05:32:24;;;;;;;6.78;2.30;;;15.20;99.90;;;;;;4982959;28;20418;-67
2023/10/20 05:34:53;;;;;;;9.05;3.58;;;15.20;99.90;;;;;;4990206;28;20426;-68
2023/10/20 05:37:21;;;;;;;8.25;2.42;;;15.20;99.90;;;;;;4990358;28;20418;-68
2023/10/20 05:39:47;;;;;;;6.70;2.40;;;15.30;99.90;;;;;;4988282;28;20442;-68
2023/10/20 05:42:12;;;;;;;6.90;2.28;;;15.40;61.90;;;;;;4989724;28;20394;-68
2023/10/20 05:44:47;;;;;;;6.47;2.43;;;15.30;51.40;;;;;;4990299;28;20854;-69
2023/10/20 05:47:13;;;;;;;6.10;2.13;;;15.30;57.50;;;;;;4989666;28;20394;-68
2023/10/20 05:49:39;;;;;;;6.28;2.10;;;15.30;68.40;;;;;;4990670;28;20403;-69
2023/10/20 05:52:05;;;;;;;7.32;2.60;;;15.30;55.00;;;;;;4991605;28;20722;-68
2023/10/20 05:54:31;;;;;;;6.75;2.78;;;15.20;43.30;;;;;;4991843;28;20757;-68
2023/10/20 05:56:57;;;;;;;9.30;2.40;;;15.10;87.60;;;;;;4991487;28;20405;-68
2023/10/20 05:59:22;;;;;;;8.23;2.63;;;15.00;99.90;;;;;;4990354;28;20395;-69
2023/10/20 06:01:48;;;;;;;5.50;2.17;;;15.10;97.70;;;;;;4989796;28;20436;-69
2023/10/20 06:04:14;;;;;;;7.68;2.33;;;15.10;90.80;;;;;;5001482;28;20411;-68
2023/10/20 06:06:39;;;;;;;6.35;1.80;;;15.00;99.90;;;;;;4984394;28;20416;-74
2023/10/20 06:09:09;;;;;;;6.37;1.97;;;15.00;99.90;;;;;;4985755;28;20432;-73
2023/10/20 06:11:37;;;;;;;5.20;1.75;;;15.00;99.90;;;;;;4991363;28;20444;-74
2023/10/20 06:14:04;;;;;;;8.05;2.00;;;15.10;99.90;;;;;;4987614;28;20468;-74
2023/10/20 06:16:32;;;;;;;5.85;1.95;;;15.10;99.90;;;;;;4989699;28;20406;-74
2023/10/20 06:18:57;;;;;;;7.50;2.27;;;15.20;98.90;;;;;;4990499;28;20398;-74
2023/10/20 06:21:23;;;;;;;6.60;2.38;;;15.30;65.50;;;;;;4989680;28;20433;-75
2023/10/20 06:23:49;;;;;;;7.80;2.63;;;15.30;47.50;;;;;;4988983;28;20991;-73
2023/10/20 06:26:15;;;;;;;5.93;2.25;;;15.30;38.60;;;;;;4989270;28;20460;-74
2023/10/20 06:28:41;;;;;;;6.72;2.33;;;15.40;22.00;;;;;;4988342;28;20406;-73
2023/10/20 06:36:44;;;;;;;9.02;2.60;;;15.30;24.40;;;;;;4990794;28;20490;-73
2023/10/20 06:39:13;;;;;;;20.37;4.00;;;15.40;24.10;;;;;;4991048;28;20876;-73
2023/10/20 06:41:39;;;;;;;11.30;3.22;;;15.30;37.00;;;;;;4988734;28;20453;-74
2023/10/20 06:44:05;;;;;;;9.63;2.63;;;15.40;29.60;;;;;;4980103;28;20856;-73
2023/10/20 06:46:30;;;;;;;9.32;3.58;;;15.50;13.80;;;;;;4988480;28;20410;-73
2023/10/20 06:48:56;;;;;;;12.00;3.50;;;15.50;16.30;;;;;;4989206;28;20421;-73
2023/10/20 06:51:23;;;;;;;10.13;2.10;;;15.60;4.00;;;;;;4990141;28;20398;-74
2023/10/20 06:53:50;;;;;;;6.60;2.40;;;15.60;1.00;;;;;;4989001;28;20410;-73
2023/10/20 06:56:16;;;;;;;10.95;2.95;;;15.60;1.00;;;;;;4990889;28;20411;-73
2023/10/20 06:58:41;;;;;;;11.53;2.50;;;15.50;1.00;;;;;;4991656;28;20409;-73
2023/10/20 07:01:07;;;;;;;7.70;3.10;;;15.50;1.00;;;;;;4994581;28;20433;-74
2023/10/20 07:03:34;;;;;;;8.13;3.63;;;15.60;1.00;;;;;;4993445;28;20418;-74
2023/10/20 07:06:00;;;;;;;6.22;2.22;;;15.70;1.00;;;;;;4991934;28;20738;-74
2023/10/20 07:08:26;;;;;;;7.25;2.30;;;15.70;1.00;;;;;;5002109;28;20400;-73
2023/10/20 07:10:52;;;;;;;6.67;2.30;;;15.60;1.00;;;;;;4994624;28;20896;-74
2023/10/20 07:13:18;;;;;;;6.30;2.93;;;15.50;1.00;;;;;;4990809;28;20442;-74
2023/10/20 07:15:44;;;;;;;8.60;2.83;;;15.50;1.00;;;;;;4976167;28;20388;-74
2023/10/20 07:18:12;;;;;;;6.95;2.40;;;15.60;1.00;;;;;;4994167;28;20457;-74
2023/10/20 07:20:39;;;;;;;8.60;3.33;;;15.60;1.00;;;;;;4994907;28;20513;-74
2023/10/20 07:23:08;;;;;;;8.43;2.60;;;15.60;1.00;;;;;;4993540;28;20448;-73
2023/10/20 07:25:34;;;;;;;7.93;2.90;;;15.60;1.00;;;;;;4974643;28;21183;-73
2023/10/20 07:28:00;;;;;;;14.30;3.70;;;15.60;1.00;;;;;;4973594;28;20400;-73
2023/10/20 07:30:29;;;;;;;6.50;2.80;;;15.70;1.00;;;;;;4974904;28;20404;-73
2023/10/20 07:32:56;;;;;;;9.98;3.30;;;15.70;1.00;;;;;;4975436;28;20572;-74
2023/10/20 07:35:22;;;;;;;15.10;3.65;;;15.60;1.00;;;;;;4991444;28;20464;-73
2023/10/20 07:37:48;;;;;;;14.00;4.30;;;15.50;1.00;;;;;;4981112;28;20395;-74
2023/10/20 07:40:14;;;;;;;12.35;4.53;;;15.60;1.00;;;;;;4973877;28;20427;-74
2023/10/20 07:42:40;;;;;;;9.35;4.30;;;15.80;1.00;;;;;;4979849;28;20414;-70
2023/10/20 07:45:07;;;;;;;8.95;3.75;;;15.90;1.00;;;;;;4992604;28;20418;-68
2023/10/20 07:47:33;;;;;;;9.20;3.83;;;16.00;1.00;;;;;;4993133;28;20414;-68
2023/10/20 07:49:59;;;;;;;11.25;5.00;;;15.90;1.00;;;;;;4992986;28;20398;-71
2023/10/20 07:52:27;;;;;;;11.68;5.28;;;15.90;1.00;;;;;;4992207;28;20390;-68
2023/10/20 07:54:52;;;;;;;10.18;3.90;;;16.00;1.00;;;;;;4992596;28;20869;-68
2023/10/20 07:57:20;;;;;;;12.27;5.03;;;16.00;1.00;;;;;;4991993;28;20485;-68
2023/10/20 07:59:46;;;;;;;18.88;4.90;;;16.00;1.00;;;;;;4992722;28;20485;-68
2023/10/20 08:02:11;;;;;;;10.95;5.50;;;16.00;1.00;;;;;;4992687;28;20442;-69
2023/10/20 08:04:37;;;;;;;12.70;4.63;;;16.20;1.00;;;;;;4993001;28;20424;-69
2023/10/20 08:07:06;;;;;;;10.53;4.83;;;16.20;1.00;;;;;;4990562;28;20413;-68
2023/10/20 08:09:32;;;;;;;9.98;4.65;;;16.20;1.00;;;;;;4991577;28;20419;-68
2023/10/20 08:11:58;;;;;;;11.63;5.22;;;16.30;1.00;;;;;;4991094;28;20401;-69
2023/10/20 08:14:26;;;;;;;13.13;5.00;;;16.40;1.00;;;;;;4991256;28;20438;-68
2023/10/20 08:16:51;;;;;;;11.85;5.80;;;16.40;1.00;;;;;;4991921;28;20403;-69
2023/10/20 08:19:17;;;;;;;12.70;5.80;;;16.40;1.00;;;;;;4991662;28;20433;-69
2023/10/20 08:21:43;;;;;;;12.50;5.40;;;16.50;1.00;;;;;;4992016;28;20923;-69
2023/10/20 08:24:10;;;;;;;11.23;5.72;;;16.70;1.00;;;;;;4991948;28;20980;-69
2023/10/20 08:26:36;;;;;;;9.68;4.68;;;16.70;1.00;;;;;;4991923;28;20414;-71
2023/10/20 08:29:02;;;;;;;10.07;4.43;;;16.60;99.90;;;;;;4992716;28;20429;-69
2023/10/20 08:31:28;;;;;;;9.23;5.03;;;16.50;99.90;;;;;;4991910;28;20402;-69
2023/10/20 08:33:53;;;;;;;10.63;5.17;;;16.50;99.90;;;;;;4991289;28;20394;-69
2023/10/20 08:36:22;;;;;;;11.32;4.75;;;16.40;99.90;;;;;;4991545;28;20829;-69
2023/10/20 08:38:52;;;;;;;12.57;5.80;;;16.40;99.90;;;;;;4991673;28;20394;-69
2023/10/20 08:41:19;;;;;;;10.97;5.53;;;16.40;1.00;;;;;;4991645;28;20517;-69
2023/10/20 08:43:46;;;;;;;11.30;5.05;;;16.50;1.00;;;;;;4990501;28;20402;-69
2023/10/20 08:46:13;;;;;;;14.00;5.20;;;16.60;1.00;;;;;;4991454;28;20391;-68
2023/10/20 08:48:47;;;;;;;10.98;5.13;;;16.70;1.00;;;;;;4991041;28;20745;-68
2023/10/20 08:51:17;;;;;;;10.93;4.88;;;16.80;1.00;;;;;;4991553;28;20399;-69
2023/10/20 08:53:44;;;;;;;10.50;4.30;;;16.90;1.00;;;;;;4989104;28;20410;-69
2023/10/20 08:56:14;;;;;;;12.13;5.43;;;16.90;1.00;;;;;;4991214;28;20393;-69
2023/10/20 08:58:40;;;;;;;11.32;5.47;;;16.70;1.00;;;;;;4991303;28;20513;-68
2023/10/20 09:01:06;;;;;;;12.07;4.87;;;16.50;1.00;;;;;;4990212;28;20435;-69
2023/10/20 09:03:52;;;;;;;12.25;5.53;;;16.60;1.00;;;;;;4991409;28;20393;-68
2023/10/20 09:06:17;;;;;;;10.52;5.32;;;16.50;1.00;;;;;;4990624;28;20493;-68
2023/10/20 09:08:49;;;;;;;11.57;5.50;;;16.50;1.00;;;;;;4990005;28;20974;-68
2023/10/20 09:11:16;;;;;;;10.90;4.65;;;16.60;1.00;;;;;;4991012;28;20437;-68
2023/10/20 09:13:44;;;;;;;9.52;4.45;;;16.60;1.00;;;;;;4991289;28;20803;-68
2023/10/20 09:16:12;;;;;;;10.55;4.43;;;16.60;1.00;;;;;;4990878;28;20502;-69
2023/10/20 09:18:42;;;;;;;9.30;4.00;;;16.60;1.00;;;;;;4991341;28;20390;-69
2023/10/20 09:21:08;;;;;;;11.80;4.32;;;16.80;1.00;;;;;;4991345;28;20434;-68
2023/10/20 09:23:33;;;;;;;11.60;5.13;;;17.00;1.00;;;;;;4989430;28;20418;-69
2023/10/20 09:25:59;;;;;;;13.23;4.93;;;17.00;1.00;;;;;;4991350;28;20460;-72
2023/10/20 09:28:25;;;;;;;11.80;5.10;;;17.20;1.00;;;;;;4990341;28;20501;-68
2023/10/20 09:30:53;;;;;;;11.40;5.25;;;17.40;99.90;;;;;;4991360;28;20489;-69
2023/10/20 09:33:20;;;;;;;10.32;4.57;;;17.40;99.90;;;;;;4988926;28;20410;-69
2023/10/20 09:35:46;;;;;;;8.95;3.60;;;17.50;1.00;;;;;;4989372;28;20494;-69
2023/10/20 09:38:13;;;;;;;10.60;4.40;;;17.40;1.00;;;;;;4990452;28;20481;-69
2023/10/20 09:40:41;;;;;;;9.05;4.43;;;17.40;1.00;;;;;;4990941;28;20426;-69
2023/10/20 09:43:29;;;;;;;8.82;3.95;;;17.30;1.00;;;;;;4991061;28;20535;-68
2023/10/20 09:46:12;;;;;;;9.25;4.10;;;17.30;1.00;;;;;;4989397;28;20900;-70
2023/10/20 09:48:40;;;;;;;12.00;5.22;;;17.40;1.00;;;;;;4990235;28;20393;-69
2023/10/20 09:51:06;;;;;;;12.52;5.25;;;17.70;1.00;;;;;;4990310;28;20721;-69
2023/10/20 09:53:32;;;;;;;10.40;4.53;;;18.00;1.00;;;;;;4990342;28;20410;-69
2023/10/20 09:55:58;;;;;;;9.77;4.70;;;18.10;99.90;;;;;;4990864;28;20765;-69
2023/10/20 09:58:25;;;;;;;11.30;5.00;;;18.00;99.90;;;;;;4989628;28;20410;-69
2023/10/20 10:00:51;;;;;;;10.80;4.70;;;17.90;99.90;;;;;;4990495;28;20528;-70
2023/10/20 10:03:28;;;;;;;10.23;4.13;;;17.90;99.90;;;;;;4989640;28;20439;-69
2023/10/20 10:05:53;;;;;;;10.93;4.57;;;18.10;99.90;;;;;;4988654;28;20389;-69
2023/10/20 10:08:20;;;;;;;9.45;4.13;;;18.20;1.00;;;;;;4989706;28;20893;-69
2023/10/20 10:10:46;;;;;;;9.18;4.10;;;18.20;1.00;;;;;;4988581;28;20970;-69
2023/10/20 10:13:11;;;;;;;9.67;4.00;;;18.00;82.30;;;;;;4989761;28;20466;-69
2023/10/20 10:15:43;;;;;;;10.80;4.70;;;17.70;99.90;;;;;;4989544;28;20409;-69
2023/10/20 10:18:11;;;;;;;9.32;3.90;;;17.60;99.90;;;;;;4990572;28;20378;-69
2023/10/20 10:20:46;;;;;;;12.73;4.57;;;17.40;1.00;;;;;;4990280;28;20427;-69
2023/10/20 10:23:12;;;;;;;11.35;4.65;;;17.60;99.90;;;;;;4987644;28;20464;-69
2023/10/20 10:25:47;;;;;;;9.95;3.75;;;17.70;99.90;;;;;;4989923;28;20421;-69
2023/10/20 10:28:15;;;;;;;7.85;3.60;;;17.80;99.90;;;;;;4988965;28;20421;-68
2023/10/20 10:30:41;;;;;;;7.33;3.27;;;18.10;99.90;;;;;;4989713;28;20468;-69
2023/10/20 10:33:10;;;;;;;8.15;3.40;;;18.20;99.90;;;;;;4988204;28;20399;-69
2023/10/20 10:35:38;;;;;;;8.70;3.58;;;18.10;49.70;;;;;;4988872;28;20877;-69
2023/10/20 10:38:23;;;;;;;8.73;3.05;;;18.10;99.90;;;;;;4972284;28;20404;-70
2023/10/20 10:40:52;;;;;;;9.68;3.80;;;18.20;99.90;;;;;;4988128;28;20430;-69
2023/10/20 10:43:19;;;;;;;7.57;3.00;;;18.20;99.90;;;;;;4988198;28;20425;-69
2023/10/20 10:45:45;;;;;;;8.13;3.00;;;18.40;99.90;;;;;;4988684;28;20481;-69
2023/10/20 10:48:12;;;;;;;8.07;3.50;;;18.30;99.90;;;;;;4989230;28;20398;-69
2023/10/20 10:50:40;;;;;;;8.15;2.28;;;18.50;96.60;;;;;;4988464;28;20407;-70
2023/10/20 10:53:07;;;;;;;7.20;2.80;;;18.60;1.00;;;;;;4989681;28;20536;-70
2023/10/20 10:55:35;;;;;;;8.03;3.10;;;18.70;1.00;;;;;;4989979;28;20402;-69
2023/10/20 10:58:02;;;;;;;8.35;3.03;;;18.80;1.00;;;;;;4990270;28;20915;-69
2023/10/20 11:00:28;;;;;;;7.38;2.28;;;18.90;1.00;;;;;;4989711;28;20422;-69
2023/10/20 11:02:56;;;;;;;6.60;2.20;;;18.60;1.00;;;;;;4988422;28;20556;-71
2023/10/20 11:05:22;;;;;;;6.83;2.60;;;18.40;99.90;;;;;;4989815;28;20405;-69
2023/10/20 11:07:59;;;;;;;5.88;1.88;;;18.60;99.90;;;;;;4989529;28;20402;-69
2023/10/20 11:10:27;;;;;;;6.32;2.10;;;18.70;99.90;;;;;;4972006;28;20859;-69
2023/10/20 11:12:53;;;;;;;6.43;2.37;;;18.80;1.00;;;;;;4977572;28;20404;-69
2023/10/20 11:15:19;;;;;;;5.57;1.80;;;18.70;1.00;;;;;;4980880;28;20406;-69
2023/10/20 11:17:45;;;;;;;6.00;1.77;;;18.70;1.00;;;;;;4988579;28;20542;-69
2023/10/20 11:20:11;;;;;;;6.97;2.10;;;18.80;1.00;;;;;;4989578;28;20406;-69
2023/10/20 11:22:37;;;;;;;6.45;1.80;;;18.90;1.00;;;;;;4989870;28;20402;-69
2023/10/20 11:25:05;;;;;;;4.72;1.10;;;18.80;99.90;;;;;;4989514;28;21041;-69
2023/10/20 11:27:40;;;;;;;4.63;0.90;;;18.70;1.00;;;;;;4988881;28;20489;-69
2023/10/20 11:30:07;;;;;;;4.13;0.40;;;18.70;99.90;;;;;;4987947;28;20734;-73
2023/10/20 11:32:33;;;;;;;4.60;0.50;;;18.60;1.00;;;;;;4989636;28;20391;-69
2023/10/20 11:34:59;;;;;;;4.10;0.50;;;18.60;99.90;;;;;;4985526;28;20409;-69
2023/10/20 11:37:25;;;;;;;4.07;0.50;;;18.40;1.00;;;;;;4988387;28;20446;-69
2023/10/20 11:39:50;;;;;;;4.30;0.40;;;18.40;99.90;;;;;;4989684;28;20430;-69
2023/10/20 11:42:16;;;;;;;4.00;0.43;;;18.40;1.00;;;;;;4989490;28;20864;-69
2023/10/20 11:44:41;;;;;;;3.90;0.40;;;18.40;99.90;;;;;;4987065;28;20396;-68
2023/10/20 11:47:07;;;;;;;3.90;0.40;;;18.40;99.90;;;;;;4972637;28;20455;-69
2023/10/20 11:49:32;;;;;;;4.10;0.70;;;18.30;1.00;;;;;;4974441;28;20753;-69
2023/10/20 11:51:58;;;;;;;4.20;0.50;;;18.30;87.40;;;;;;4973913;28;20391;-69
2023/10/20 11:54:23;;;;;;;3.97;0.50;;;18.30;99.90;;;;;;4973764;28;20393;-69
2023/10/20 11:56:50;;;;;;;3.90;0.40;;;18.40;1.00;;;;;;4973319;28;20407;-68
2023/10/20 11:59:16;;;;;;;4.40;0.50;;;18.30;16.10;;;;;;4973668;28;20450;-68
2023/10/20 12:01:41;;;;;;;3.90;0.43;;;18.10;99.90;;;;;;4986386;28;20754;-68
2023/10/20 12:04:08;;;;;;;4.10;0.50;;;18.30;1.00;;;;;;4993070;28;20398;-68
2023/10/20 12:06:36;;;;;;;4.80;0.70;;;18.50;99.90;;;;;;4993936;28;20392;-68
2023/10/20 12:09:03;;;;;;;4.00;0.50;;;18.50;99.90;;;;;;4993552;28;20430;-69
2023/10/20 12:11:29;;;;;;;3.97;0.40;;;18.60;99.90;;;;;;4991789;28;20406;-69
2023/10/20 12:13:55;;;;;;;5.82;0.55;;;18.70;4.20;;;;;;5008277;28;21589;-68
2023/10/20 12:16:24;;;;;;;3.90;0.47;;;18.60;99.90;;;;;;4992653;28;20394;-69
2023/10/20 12:18:51;;;;;;;3.90;0.40;;;18.60;1.00;;;;;;4989006;28;20402;-69
2023/10/20 12:21:17;;;;;;;4.00;0.30;;;18.40;99.90;;;;;;4979285;28;20428;-67
2023/10/20 12:23:43;;;;;;;3.80;0.30;;;18.50;99.90;;;;;;4988433;28;20424;-68
2023/10/20 12:26:10;;;;;;;5.20;0.50;;;18.50;1.00;;;;;;4990926;28;20994;-69
2023/10/20 12:28:35;;;;;;;4.10;0.55;;;18.50;55.10;;;;;;4991145;28;20390;-74
2023/10/20 12:31:01;;;;;;;3.90;0.50;;;18.50;1.00;;;;;;4992063;28;20413;-68
2023/10/20 12:33:27;;;;;;;3.90;0.30;;;18.60;1.00;;;;;;4991718;28;20424;-69
2023/10/20 12:35:55;;;;;;;3.90;0.40;;;18.70;1.00;;;;;;4991804;28;20468;-68
2023/10/20 12:38:22;;;;;;;3.92;0.50;;;19.00;1.00;;;;;;4988598;28;20900;-68
2023/10/20 12:40:49;;;;;;;4.00;0.40;;;19.20;99.90;;;;;;4990876;28;20845;-68
2023/10/20 12:43:15;;;;;;;4.00;0.50;;;19.30;99.90;;;;;;4990534;28;20406;-69
2023/10/20 12:45:41;;;;;;;4.30;0.50;;;19.50;1.00;;;;;;4988846;28;20905;-69
2023/10/20 12:48:06;;;;;;;3.90;0.30;;;19.40;99.90;;;;;;4990711;28;20394;-70
2023/10/20 12:50:32;;;;;;;4.20;0.50;;;19.60;99.90;;;;;;4991502;28;20394;-68
2023/10/20 12:52:59;;;;;;;4.90;0.80;;;19.60;99.90;;;;;;4990769;28;20414;-68
2023/10/20 12:55:26;;;;;;;4.00;0.50;;;19.50;1.00;;;;;;4989158;28;21114;-69
2023/10/20 12:57:52;;;;;;;4.00;0.40;;;19.50;1.00;;;;;;4990629;28;20919;-68
2023/10/20 13:00:18;;;;;;;4.20;0.60;;;19.50;1.00;;;;;;4991018;28;20968;-69
2023/10/20 13:02:45;;;;;;;4.30;0.50;;;19.30;60.10;;;;;;4989692;28;20556;-69
2023/10/20 13:05:11;;;;;;;4.20;0.50;;;19.40;1.00;;;;;;4990849;28;20742;-69
2023/10/20 13:07:37;;;;;;;4.30;0.50;;;19.40;1.00;;;;;;4991155;28;20414;-69
2023/10/20 13:10:03;;;;;;;4.80;0.40;;;19.20;99.90;;;;;;4991653;28;20395;-69
2023/10/20 13:12:29;;;;;;;4.10;0.40;;;19.20;99.90;;;;;;4991266;28;20410;-68
2023/10/20 13:14:56;;;;;;;4.40;0.70;;;19.10;99.90;;;;;;4990312;28;20398;-69
2023/10/20 13:17:22;;;;;;;4.95;0.65;;;19.20;99.90;;;;;;4977707;28;20406;-68
2023/10/20 13:19:49;;;;;;;4.00;0.40;;;19.20;99.90;;;;;;4991261;28;20501;-68